Time;durP1;ratioP1;P1;durP2;ratioP2;P2;SDS_P1;SDS_P2;PMS_P1;PMS_P2;Temp;Humidity;BMP_temperature;BMP_pressure;BME280_temperature;BME280_humidity;BME280_pressure;Samples;Min_cycle;Max_cycle;Signal;HPM_P1;HPM_P2
2023/05/08 00:00:16;;;;;;;20.20;18.50;;;17.40;57.10;;;;;;5071251;28;20564;-73
2023/05/08 00:02:42;;;;;;;19.60;18.50;;;17.50;57.30;;;;;;5070505;28;20215;-73
2023/05/08 00:05:07;;;;;;;18.57;17.47;;;17.40;56.80;;;;;;5051221;28;20696;-73
2023/05/08 00:07:34;;;;;;;18.97;17.77;;;17.50;56.80;;;;;;5070557;28;20195;-73
2023/05/08 00:10:00;;;;;;;18.90;17.60;;;17.40;56.90;;;;;;5072870;28;20645;-74
2023/05/08 00:12:25;;;;;;;19.23;18.07;;;17.50;56.70;;;;;;5072508;28;20490;-74
2023/05/08 00:14:51;;;;;;;19.73;18.73;;;17.50;56.70;;;;;;5070885;28;20546;-73
2023/05/08 00:17:16;;;;;;;19.10;17.90;;;17.50;56.70;;;;;;5073706;28;20179;-73
2023/05/08 00:19:42;;;;;;;18.67;17.57;;;17.40;56.40;;;;;;5072258;28;20268;-74
2023/05/08 00:22:07;;;;;;;18.70;17.60;;;17.40;56.40;;;;;;5071013;28;20237;-74
2023/05/08 00:24:33;;;;;;;17.37;16.37;;;17.40;56.30;;;;;;5072145;28;20230;-74
2023/05/08 00:26:58;;;;;;;17.80;16.80;;;17.40;56.20;;;;;;5072358;28;20179;-73
2023/05/08 00:29:24;;;;;;;17.13;16.13;;;17.40;55.80;;;;;;5072861;28;20180;-74
2023/05/08 00:31:49;;;;;;;17.03;16.03;;;17.40;55.80;;;;;;5069116;28;20683;-74
2023/05/08 00:34:15;;;;;;;17.17;16.07;;;17.40;55.80;;;;;;5070132;28;20179;-73
2023/05/08 00:36:40;;;;;;;16.90;15.97;;;17.40;55.60;;;;;;5070701;28;20179;-74
2023/05/08 00:39:06;;;;;;;15.60;14.80;;;17.40;55.80;;;;;;5070739;28;20180;-74
2023/05/08 00:41:32;;;;;;;16.17;15.17;;;17.40;55.70;;;;;;5069118;28;20178;-74
2023/05/08 00:43:57;;;;;;;16.90;16.00;;;17.40;55.30;;;;;;5054280;28;21548;-73
2023/05/08 00:46:23;;;;;;;13.93;13.27;;;17.40;54.70;;;;;;5069473;28;20175;-74
2023/05/08 00:48:49;;;;;;;16.00;15.00;;;17.40;54.80;;;;;;5072575;28;20170;-74
2023/05/08 00:51:15;;;;;;;14.90;13.73;;;17.40;54.40;;;;;;5069118;28;20633;-74
2023/05/08 00:53:43;;;;;;;16.83;16.00;;;17.40;54.50;;;;;;5068539;28;20252;-73
2023/05/08 00:56:14;;;;;;;14.63;13.93;;;17.30;53.90;;;;;;5067961;28;20417;-73
2023/05/08 00:58:41;;;;;;;16.40;15.50;;;17.30;54.00;;;;;;5069546;28;20503;-73
2023/05/08 01:01:07;;;;;;;16.10;15.20;;;17.20;53.50;;;;;;5068908;28;20528;-74
2023/05/08 01:03:35;;;;;;;18.63;17.73;;;17.20;54.00;;;;;;5050917;28;20465;-73
2023/05/08 01:06:01;;;;;;;15.93;15.10;;;17.20;53.60;;;;;;5070287;28;20661;-73
2023/05/08 01:08:27;;;;;;;15.33;14.43;;;17.20;54.10;;;;;;5068500;28;20408;-74
2023/05/08 01:11:14;;;;;;;16.90;15.90;;;17.30;54.10;;;;;;5067878;28;20413;-74
2023/05/08 01:13:53;;;;;;;16.53;15.53;;;17.30;53.90;;;;;;5070933;28;20191;-73
2023/05/08 01:16:37;;;;;;;16.80;15.63;;;17.30;53.90;;;;;;5049871;28;20425;-72
2023/05/08 01:19:21;;;;;;;16.63;15.67;;;17.30;54.00;;;;;;5071981;28;20842;-74
2023/05/08 01:22:21;;;;;;;18.57;17.47;;;17.30;54.00;;;;;;5068417;28;20421;-74
2023/05/08 01:25:34;;;;;;;19.20;18.00;;;17.30;53.60;;;;;;5061511;28;20440;-73
2023/05/08 01:28:37;;;;;;;18.33;17.27;;;17.30;53.70;;;;;;5068911;28;20424;-73
2023/05/08 01:31:21;;;;;;;21.13;19.93;;;17.30;54.00;;;;;;5068970;28;20424;-72
2023/05/08 01:34:07;;;;;;;20.00;18.80;;;17.20;53.90;;;;;;5067614;28;20430;-73
2023/05/08 01:36:39;;;;;;;20.97;19.77;;;17.20;54.40;;;;;;5066403;28;20915;-74
2023/05/08 01:39:16;;;;;;;20.33;19.00;;;17.20;54.50;;;;;;5069857;28;20414;-74
2023/05/08 01:41:50;;;;;;;21.57;20.27;;;17.30;54.60;;;;;;5069235;28;20405;-74
2023/05/08 01:44:22;;;;;;;19.23;18.00;;;17.30;55.10;;;;;;5069453;28;20920;-73
2023/05/08 01:46:49;;;;;;;20.77;19.57;;;17.30;55.00;;;;;;5068161;28;20410;-73
2023/05/08 01:49:33;;;;;;;22.13;20.73;;;17.30;54.50;;;;;;5067318;28;20915;-74
2023/05/08 01:52:04;;;;;;;20.67;19.37;;;17.30;54.40;;;;;;5068228;28;20422;-73
2023/05/08 01:54:38;;;;;;;22.43;21.03;;;17.30;54.30;;;;;;5068399;28;20485;-74
2023/05/08 01:57:07;;;;;;;20.90;19.60;;;17.40;54.30;;;;;;5052622;28;20413;-72
2023/05/08 01:59:35;;;;;;;21.47;20.07;;;17.30;54.00;;;;;;5066264;28;20460;-74
2023/05/08 02:02:02;;;;;;;22.17;20.67;;;17.30;54.00;;;;;;5064986;28;20453;-74
2023/05/08 02:04:29;;;;;;;20.87;19.67;;;17.30;54.10;;;;;;5069257;28;20839;-73
2023/05/08 02:06:56;;;;;;;19.87;18.67;;;17.30;54.00;;;;;;5069663;28;20448;-74
2023/05/08 02:09:23;;;;;;;22.13;20.83;;;17.30;54.00;;;;;;5068345;28;20413;-74
2023/05/08 02:11:49;;;;;;;24.17;22.37;;;17.30;54.10;;;;;;5067093;28;20484;-74
2023/05/08 02:14:18;;;;;;;22.00;20.60;;;17.30;54.30;;;;;;5071001;28;20406;-73
2023/05/08 02:16:47;;;;;;;22.10;20.70;;;17.30;54.10;;;;;;5066352;28;20398;-73
2023/05/08 02:19:14;;;;;;;23.43;22.03;;;17.30;54.00;;;;;;5068358;28;20422;-73
2023/05/08 02:21:40;;;;;;;24.20;22.60;;;17.30;54.30;;;;;;5066723;28;20776;-74
2023/05/08 02:24:07;;;;;;;24.17;22.63;;;17.30;54.10;;;;;;5065332;28;20425;-74
2023/05/08 02:26:33;;;;;;;22.30;20.67;;;17.30;54.00;;;;;;5065904;28;20405;-74
2023/05/08 02:29:01;;;;;;;23.20;21.60;;;17.30;54.10;;;;;;5068145;28;20418;-73
2023/05/08 02:31:28;;;;;;;22.83;21.53;;;17.30;54.10;;;;;;5066951;28;20778;-74
2023/05/08 02:33:54;;;;;;;23.30;21.80;;;17.30;53.80;;;;;;5050643;28;20460;-73
2023/05/08 02:36:21;;;;;;;22.67;21.37;;;17.30;54.10;;;;;;5065036;28;20762;-74
2023/05/08 02:38:51;;;;;;;22.97;21.57;;;17.30;54.20;;;;;;5066550;28;20417;-73
2023/05/08 02:41:21;;;;;;;24.13;22.63;;;17.30;54.00;;;;;;5065900;28;20476;-74
2023/05/08 02:43:47;;;;;;;22.70;21.20;;;17.30;54.10;;;;;;5067218;28;20429;-74
2023/05/08 02:46:32;;;;;;;24.00;22.53;;;17.40;53.90;;;;;;5048396;28;20867;-74
2023/05/08 02:49:28;;;;;;;24.47;22.90;;;17.40;53.70;;;;;;5067084;28;20432;-73
2023/05/08 02:52:01;;;;;;;23.60;21.90;;;17.40;53.60;;;;;;5066617;28;20430;-73
2023/05/08 02:54:50;;;;;;;22.63;21.10;;;17.40;53.40;;;;;;5065803;28;20412;-73
2023/05/08 02:57:34;;;;;;;23.87;22.40;;;17.40;53.10;;;;;;5066075;28;20405;-74
2023/05/08 03:00:15;;;;;;;25.80;24.10;;;17.40;53.30;;;;;;5050846;28;20518;-74
2023/05/08 03:02:51;;;;;;;24.93;23.27;;;17.30;53.10;;;;;;5068053;28;20445;-73
2023/05/08 03:05:21;;;;;;;25.40;23.90;;;17.30;53.40;;;;;;5071542;28;20428;-72
2023/05/08 03:07:51;;;;;;;24.53;23.03;;;17.30;54.00;;;;;;5070875;28;20409;-73
2023/05/08 03:10:20;;;;;;;24.50;23.00;;;17.40;53.50;;;;;;5070094;28;20882;-74
2023/05/08 03:12:50;;;;;;;24.77;23.27;;;17.30;53.40;;;;;;5067185;28;20479;-74
2023/05/08 03:15:27;;;;;;;25.20;23.50;;;17.30;53.70;;;;;;5069106;28;20452;-74
2023/05/08 03:17:57;;;;;;;23.20;21.80;;;17.30;53.90;;;;;;5070963;28;20495;-74
2023/05/08 03:20:25;;;;;;;24.57;22.97;;;17.30;53.50;;;;;;5069117;28;20465;-74
2023/05/08 03:22:54;;;;;;;23.30;21.77;;;17.30;53.40;;;;;;5069868;28;20809;-73
2023/05/08 03:25:20;;;;;;;23.10;21.60;;;17.20;53.90;;;;;;5070960;28;20413;-74
2023/05/08 03:27:47;;;;;;;20.60;19.30;;;17.20;54.10;;;;;;5071262;28;20409;-75
2023/05/08 03:30:15;;;;;;;21.07;19.87;;;17.20;53.90;;;;;;5073322;28;20804;-73
2023/05/08 03:32:43;;;;;;;20.03;18.90;;;17.20;54.00;;;;;;5068776;28;20939;-72
2023/05/08 03:35:09;;;;;;;19.40;18.27;;;17.20;53.70;;;;;;5068834;28;20660;-75
2023/05/08 03:37:34;;;;;;;19.63;18.63;;;17.20;53.70;;;;;;5069789;28;20421;-74
2023/05/08 03:40:00;;;;;;;20.60;19.30;;;17.20;54.00;;;;;;5068732;28;20691;-74
2023/05/08 03:42:26;;;;;;;20.00;18.80;;;17.20;53.60;;;;;;5069337;28;20711;-73
2023/05/08 03:44:53;;;;;;;19.67;18.50;;;17.20;54.40;;;;;;5069826;28;20596;-74
2023/05/08 03:47:24;;;;;;;20.33;19.23;;;17.20;53.40;;;;;;5069581;28;20445;-73
2023/05/08 03:49:50;;;;;;;20.93;19.83;;;17.20;53.50;;;;;;5069295;28;20955;-73
2023/05/08 03:52:16;;;;;;;21.30;20.10;;;17.20;53.20;;;;;;5070966;28;20491;-73
2023/05/08 03:54:42;;;;;;;20.93;19.83;;;17.20;53.00;;;;;;5071081;28;20186;-73
2023/05/08 03:57:07;;;;;;;19.80;18.70;;;17.20;53.10;;;;;;5068231;28;20176;-73
2023/05/08 03:59:53;;;;;;;20.73;19.53;;;17.20;52.90;;;;;;5069163;28;20256;-73
2023/05/08 04:02:35;;;;;;;19.17;18.17;;;17.20;53.00;;;;;;5066909;28;20237;-74
2023/05/08 04:05:24;;;;;;;21.50;20.10;;;17.20;52.90;;;;;;5069043;28;20810;-74
2023/05/08 04:07:56;;;;;;;20.03;18.83;;;17.10;52.60;;;;;;5067642;28;20408;-71
2023/05/08 04:10:35;;;;;;;20.10;19.03;;;17.10;52.80;;;;;;5067014;28;20424;-74
2023/05/08 04:13:13;;;;;;;21.00;19.80;;;17.20;53.00;;;;;;5069562;28;20461;-73
2023/05/08 04:15:59;;;;;;;19.40;18.30;;;17.10;53.00;;;;;;5069374;28;20409;-73
2023/05/08 04:18:29;;;;;;;19.93;18.83;;;17.20;52.90;;;;;;5070666;28;20878;-74
2023/05/08 04:20:56;;;;;;;21.90;20.80;;;17.20;52.70;;;;;;5050153;28;20826;-72
2023/05/08 04:23:23;;;;;;;20.20;19.10;;;17.10;52.50;;;;;;5065846;28;20482;-73
2023/05/08 04:25:51;;;;;;;19.20;18.03;;;17.20;52.90;;;;;;5050676;28;20426;-74
2023/05/08 04:28:18;;;;;;;19.93;18.80;;;17.10;52.60;;;;;;5067816;28;20972;-74
2023/05/08 04:30:44;;;;;;;19.43;18.43;;;17.10;52.90;;;;;;5066225;28;20512;-74
2023/05/08 04:33:10;;;;;;;20.00;18.70;;;17.10;52.80;;;;;;5047942;28;20509;-74
2023/05/08 04:35:36;;;;;;;19.13;18.10;;;17.20;52.90;;;;;;5066822;28;20452;-74
2023/05/08 04:38:01;;;;;;;19.13;18.13;;;17.20;52.30;;;;;;5066940;28;20409;-74
2023/05/08 04:40:27;;;;;;;19.77;18.37;;;17.10;52.50;;;;;;5067408;28;20685;-73
2023/05/08 04:42:52;;;;;;;19.53;18.40;;;17.20;52.40;;;;;;5068451;28;20187;-74
2023/05/08 04:45:18;;;;;;;20.43;19.30;;;17.10;52.70;;;;;;5067107;28;20180;-73
2023/05/08 04:47:43;;;;;;;20.37;19.17;;;17.10;52.70;;;;;;5069608;28;20174;-73
2023/05/08 04:50:10;;;;;;;19.23;18.10;;;17.10;52.80;;;;;;5050884;28;20186;-72
2023/05/08 04:52:36;;;;;;;20.03;18.53;;;17.10;53.10;;;;;;5067357;28;20333;-73
2023/05/08 04:55:01;;;;;;;18.57;17.47;;;17.10;52.70;;;;;;5068732;28;20818;-72
2023/05/08 04:57:27;;;;;;;18.10;16.97;;;17.20;52.50;;;;;;5068271;28;20258;-73
2023/05/08 04:59:52;;;;;;;17.73;16.83;;;17.20;52.50;;;;;;5066371;28;20213;-74
2023/05/08 05:02:18;;;;;;;21.73;20.63;;;17.20;52.20;;;;;;5048212;28;20218;-74
2023/05/08 05:04:43;;;;;;;18.57;17.20;;;17.20;52.10;;;;;;5050891;28;20195;-73
2023/05/08 05:07:09;;;;;;;17.30;16.40;;;17.00;52.00;;;;;;5047504;28;20278;-77
2023/05/08 05:09:35;;;;;;;16.93;16.03;;;17.00;53.00;;;;;;5067982;28;20640;-70
2023/05/08 05:12:03;;;;;;;17.40;16.20;;;17.00;52.80;;;;;;5066641;28;20192;-73
2023/05/08 05:14:28;;;;;;;17.97;16.87;;;17.10;52.80;;;;;;5069195;28;20405;-73
2023/05/08 05:16:54;;;;;;;17.27;16.37;;;17.10;52.30;;;;;;5067133;28;20402;-73
2023/05/08 05:19:19;;;;;;;17.80;16.60;;;17.00;52.80;;;;;;5049298;28;20198;-74
2023/05/08 05:21:45;;;;;;;17.97;17.07;;;17.10;52.80;;;;;;5048390;28;20645;-73
2023/05/08 05:24:10;;;;;;;17.30;16.30;;;17.00;52.80;;;;;;5073071;28;20167;-73
2023/05/08 05:26:36;;;;;;;18.67;17.67;;;17.10;52.80;;;;;;5066654;28;20171;-74
2023/05/08 05:29:01;;;;;;;18.60;17.40;;;17.10;52.60;;;;;;5049988;28;20182;-75
2023/05/08 05:31:28;;;;;;;18.30;17.30;;;17.20;52.40;;;;;;5066566;28;20175;-74
2023/05/08 05:33:53;;;;;;;17.90;17.00;;;17.10;52.00;;;;;;5068376;28;20191;-74
2023/05/08 05:36:19;;;;;;;18.90;17.97;;;17.10;52.10;;;;;;5050360;28;20424;-74
2023/05/08 05:38:45;;;;;;;17.30;16.20;;;17.20;51.90;;;;;;5067611;28;20711;-73
2023/05/08 05:41:10;;;;;;;19.10;18.10;;;17.10;51.70;;;;;;5067490;28;20215;-74
2023/05/08 05:43:36;;;;;;;18.17;17.03;;;17.10;51.80;;;;;;5071260;28;20538;-75
2023/05/08 05:46:08;;;;;;;17.50;16.50;;;17.10;51.80;;;;;;5066834;28;20171;-72
2023/05/08 05:48:34;;;;;;;17.73;16.83;;;17.10;51.90;;;;;;5065565;28;20171;-75
2023/05/08 05:51:00;;;;;;;17.87;16.87;;;17.10;52.00;;;;;;5053686;28;20483;-75
2023/05/08 05:53:26;;;;;;;17.53;16.57;;;17.10;52.10;;;;;;5064094;28;20441;-73
2023/05/08 05:55:52;;;;;;;17.63;16.73;;;17.10;52.30;;;;;;5064942;28;20938;-73
2023/05/08 05:58:18;;;;;;;17.70;16.70;;;17.10;51.80;;;;;;5067110;28;20661;-71
2023/05/08 06:00:43;;;;;;;18.00;17.00;;;17.10;51.70;;;;;;5067653;28;20211;-74
2023/05/08 06:03:12;;;;;;;18.33;17.23;;;17.10;51.90;;;;;;5065464;28;20469;-75
2023/05/08 06:05:38;;;;;;;19.50;18.30;;;17.10;51.90;;;;;;5064925;28;20171;-74
2023/05/08 06:08:05;;;;;;;17.60;16.70;;;17.10;52.20;;;;;;5071168;28;20480;-73
2023/05/08 06:10:30;;;;;;;18.53;17.53;;;17.10;51.90;;;;;;5048490;28;20480;-75
2023/05/08 06:12:56;;;;;;;16.30;15.30;;;17.10;52.00;;;;;;5064810;28;20457;-74
2023/05/08 06:15:22;;;;;;;15.90;15.00;;;17.20;51.90;;;;;;5064862;28;20183;-74
2023/05/08 06:17:47;;;;;;;17.17;16.27;;;17.10;52.10;;;;;;5068526;28;20175;-75
2023/05/08 06:20:13;;;;;;;18.20;17.20;;;17.20;52.20;;;;;;5067890;28;20202;-75
2023/05/08 06:22:40;;;;;;;17.33;16.43;;;17.10;52.20;;;;;;5067968;28;20191;-74
2023/05/08 06:25:07;;;;;;;18.80;17.70;;;17.20;52.10;;;;;;5068140;28;20649;-75
2023/05/08 06:27:35;;;;;;;18.00;17.00;;;17.10;52.40;;;;;;5063777;28;20444;-74
2023/05/08 06:30:03;;;;;;;16.90;15.97;;;17.10;52.80;;;;;;5069442;28;20472;-74
2023/05/08 06:32:29;;;;;;;16.40;15.50;;;17.20;52.80;;;;;;5048851;28;20441;-75
2023/05/08 06:34:54;;;;;;;20.70;19.30;;;17.20;52.50;;;;;;5049362;28;20417;-75
2023/05/08 06:37:20;;;;;;;17.70;16.50;;;17.20;52.40;;;;;;5068744;28;20174;-74
2023/05/08 06:39:45;;;;;;;17.87;16.80;;;17.20;52.40;;;;;;5068002;28;21332;-75
2023/05/08 06:42:11;;;;;;;16.57;15.47;;;17.10;52.60;;;;;;5072044;28;20199;-74
2023/05/08 06:44:36;;;;;;;17.83;16.83;;;17.20;52.60;;;;;;5069209;28;20251;-73
2023/05/08 06:47:02;;;;;;;17.63;16.73;;;17.20;52.60;;;;;;5070516;28;20183;-74
2023/05/08 06:49:27;;;;;;;18.27;17.00;;;17.10;52.90;;;;;;5073788;28;20186;-73
2023/05/08 06:51:53;;;;;;;17.27;16.37;;;17.10;53.10;;;;;;5072431;28;20183;-71
2023/05/08 06:54:19;;;;;;;17.77;16.63;;;17.10;53.40;;;;;;5069636;28;20183;-74
2023/05/08 06:56:45;;;;;;;17.60;16.60;;;17.10;53.30;;;;;;5071175;28;20171;-74
2023/05/08 06:59:10;;;;;;;16.03;15.17;;;17.10;53.40;;;;;;5070613;28;20214;-72
2023/05/08 07:01:36;;;;;;;17.70;16.70;;;17.20;53.40;;;;;;5070182;28;20878;-74
2023/05/08 07:04:02;;;;;;;15.63;14.83;;;17.10;52.80;;;;;;5067962;28;20211;-74
2023/05/08 07:06:29;;;;;;;17.00;16.20;;;17.10;52.90;;;;;;5069917;28;20203;-73
2023/05/08 07:08:55;;;;;;;17.17;16.23;;;17.10;53.10;;;;;;5070125;28;20421;-75
2023/05/08 07:11:21;;;;;;;16.07;15.17;;;17.10;53.10;;;;;;5068614;28;20443;-75
2023/05/08 07:13:47;;;;;;;16.60;15.70;;;17.10;53.30;;;;;;5070944;28;20196;-75
2023/05/08 07:16:13;;;;;;;16.50;15.60;;;17.20;53.40;;;;;;5070232;28;20183;-72
2023/05/08 07:18:39;;;;;;;16.37;15.50;;;17.20;53.40;;;;;;5050838;28;20219;-74
2023/05/08 07:21:04;;;;;;;16.47;15.57;;;17.20;53.40;;;;;;5068962;28;20508;-73
2023/05/08 07:23:30;;;;;;;16.80;15.80;;;17.20;54.00;;;;;;5072949;28;20199;-74
2023/05/08 07:25:56;;;;;;;15.90;15.10;;;17.20;53.70;;;;;;5070205;28;20171;-75
2023/05/08 07:28:22;;;;;;;17.30;16.30;;;17.20;53.70;;;;;;5070694;28;20463;-74
2023/05/08 07:30:47;;;;;;;18.73;17.63;;;17.20;53.40;;;;;;5057469;28;20430;-75
2023/05/08 07:33:13;;;;;;;18.10;17.10;;;17.20;53.30;;;;;;5053321;28;20684;-74
2023/05/08 07:35:39;;;;;;;18.20;17.27;;;17.20;53.30;;;;;;5070351;28;20537;-72
2023/05/08 07:38:05;;;;;;;17.43;16.43;;;17.20;54.10;;;;;;5069393;28;20180;-73
2023/05/08 07:40:31;;;;;;;17.33;16.43;;;17.20;54.00;;;;;;5071795;28;20465;-73
2023/05/08 07:42:56;;;;;;;17.20;16.30;;;17.20;53.70;;;;;;5066110;28;20206;-74
2023/05/08 07:45:22;;;;;;;18.60;17.50;;;17.30;53.30;;;;;;5049860;28;20183;-73
2023/05/08 07:47:52;;;;;;;18.93;17.70;;;17.20;53.70;;;;;;5068056;28;20167;-73
2023/05/08 07:50:19;;;;;;;18.40;17.27;;;17.20;54.20;;;;;;5051241;28;20183;-74
2023/05/08 07:52:45;;;;;;;18.73;17.43;;;17.00;54.20;;;;;;5069345;28;20433;-71
2023/05/08 07:55:10;;;;;;;17.67;16.63;;;17.10;54.80;;;;;;5069410;28;20418;-74
2023/05/08 07:57:37;;;;;;;19.60;18.40;;;17.20;55.00;;;;;;5053374;28;20508;-74
2023/05/08 08:00:07;;;;;;;20.23;19.07;;;17.20;54.20;;;;;;5068318;28;20207;-74
2023/05/08 08:02:33;;;;;;;19.33;18.23;;;17.20;53.70;;;;;;5068456;28;20446;-74
2023/05/08 08:04:58;;;;;;;19.13;18.10;;;17.20;53.60;;;;;;5069064;28;20412;-73
2023/05/08 08:07:24;;;;;;;19.53;18.23;;;17.30;53.10;;;;;;5069971;28;20182;-73
2023/05/08 08:09:50;;;;;;;17.90;16.73;;;17.20;54.20;;;;;;5070171;28;20966;-73
2023/05/08 08:12:15;;;;;;;18.40;17.30;;;17.00;54.70;;;;;;5067934;28;20277;-71
2023/05/08 08:14:41;;;;;;;18.17;17.27;;;17.00;54.60;;;;;;5071664;28;20171;-73
2023/05/08 08:17:06;;;;;;;17.90;16.80;;;16.80;55.00;;;;;;5069435;28;20245;-74
2023/05/08 08:19:32;;;;;;;21.40;20.10;;;16.80;55.50;;;;;;5068856;28;20182;-70
2023/05/08 08:21:57;;;;;;;18.60;17.50;;;16.90;55.80;;;;;;5065973;28;20684;-71
2023/05/08 08:24:23;;;;;;;17.23;16.30;;;16.80;56.00;;;;;;5070853;28;20291;-73
2023/05/08 08:26:48;;;;;;;16.30;15.50;;;16.80;56.10;;;;;;5052079;28;20212;-74
2023/05/08 08:29:14;;;;;;;16.87;15.77;;;16.90;55.30;;;;;;5069231;28;20168;-74
2023/05/08 08:31:40;;;;;;;17.23;16.33;;;17.00;55.20;;;;;;5051625;28;20198;-74
2023/05/08 08:34:05;;;;;;;16.70;15.70;;;17.10;54.50;;;;;;5052188;28;20186;-74
2023/05/08 08:36:31;;;;;;;14.90;14.10;;;17.00;55.30;;;;;;5067530;28;20257;-74
2023/05/08 08:38:57;;;;;;;15.00;14.20;;;16.90;55.10;;;;;;5067806;28;20215;-72
2023/05/08 08:41:23;;;;;;;14.20;13.50;;;16.90;54.50;;;;;;5068839;28;20217;-72
2023/05/08 08:43:49;;;;;;;14.13;13.40;;;16.90;53.70;;;;;;5067668;28;20520;-74
2023/05/08 08:46:18;;;;;;;14.30;13.40;;;16.80;53.00;;;;;;5067929;28;20225;-72
2023/05/08 08:48:45;;;;;;;14.17;13.47;;;16.80;53.30;;;;;;5067087;28;20168;-74
2023/05/08 08:51:34;;;;;;;15.30;14.40;;;16.80;53.80;;;;;;5048960;28;20428;-73
2023/05/08 08:54:03;;;;;;;14.93;13.93;;;16.90;54.00;;;;;;5051690;28;20438;-74
2023/05/08 08:56:30;;;;;;;14.00;13.30;;;17.00;53.80;;;;;;5048606;28;20426;-76
2023/05/08 08:58:58;;;;;;;14.73;13.80;;;17.10;53.30;;;;;;5068473;28;20915;-73
2023/05/08 09:01:25;;;;;;;15.27;14.47;;;17.00;53.00;;;;;;5067842;28;20561;-74
2023/05/08 09:03:51;;;;;;;14.77;13.97;;;17.10;53.70;;;;;;5067008;28;20439;-73
2023/05/08 09:06:18;;;;;;;14.53;13.83;;;17.10;53.90;;;;;;5063764;28;20554;-72
2023/05/08 09:08:43;;;;;;;14.60;13.57;;;17.10;53.60;;;;;;5031792;28;20180;-71
2023/05/08 09:11:09;;;;;;;16.27;14.73;;;17.10;53.40;;;;;;5046434;28;20437;-74
2023/05/08 09:13:34;;;;;;;15.20;14.30;;;17.00;52.40;;;;;;5049578;28;20749;-73
2023/05/08 09:16:00;;;;;;;15.70;14.50;;;16.90;51.10;;;;;;5031428;28;20203;-74
2023/05/08 09:18:26;;;;;;;14.37;13.67;;;16.80;52.30;;;;;;5030076;28;20310;-73
2023/05/08 09:20:52;;;;;;;15.37;14.37;;;16.60;53.90;;;;;;5047128;28;20541;-74
2023/05/08 09:23:18;;;;;;;15.50;14.60;;;16.60;54.90;;;;;;5047247;28;20187;-73
2023/05/08 09:25:46;;;;;;;14.90;13.90;;;16.60;55.10;;;;;;5030656;28;20453;-74
2023/05/08 09:28:20;;;;;;;15.00;13.90;;;16.60;56.10;;;;;;5047647;28;20403;-74
2023/05/08 09:30:54;;;;;;;16.20;15.20;;;16.60;56.50;;;;;;5045767;28;20912;-74
2023/05/08 09:33:21;;;;;;;16.10;15.10;;;16.50;57.10;;;;;;5048679;28;20517;-74
2023/05/08 09:35:47;;;;;;;16.07;15.13;;;16.60;57.20;;;;;;5045143;28;20757;-71
2023/05/08 09:38:36;;;;;;;16.30;15.13;;;16.70;57.30;;;;;;5047665;28;20429;-72
2023/05/08 09:41:09;;;;;;;16.63;15.33;;;16.70;57.60;;;;;;5029454;28;20256;-74
2023/05/08 09:43:35;;;;;;;16.17;14.97;;;16.80;57.90;;;;;;5049572;28;20469;-75
2023/05/08 09:46:25;;;;;;;16.27;15.17;;;16.80;58.50;;;;;;5047381;28;20913;-75
2023/05/08 09:48:52;;;;;;;16.83;15.70;;;16.60;58.00;;;;;;5049060;28;20172;-74
2023/05/08 09:51:19;;;;;;;17.50;16.30;;;16.70;59.10;;;;;;5046082;28;20418;-71
2023/05/08 09:53:44;;;;;;;16.27;15.27;;;16.80;58.30;;;;;;5048547;28;20438;-74
2023/05/08 09:56:10;;;;;;;16.43;15.43;;;16.80;57.10;;;;;;5050922;28;20465;-73
2023/05/08 09:58:40;;;;;;;15.63;14.63;;;16.90;56.00;;;;;;5032854;28;20557;-74
2023/05/08 10:01:07;;;;;;;15.43;14.53;;;17.00;54.70;;;;;;5048381;28;20622;-73
2023/05/08 10:03:47;;;;;;;15.47;14.60;;;17.00;53.80;;;;;;5049932;28;20961;-73
2023/05/08 10:06:15;;;;;;;15.67;14.87;;;17.10;53.90;;;;;;5050710;28;20533;-74
2023/05/08 10:08:41;;;;;;;14.80;13.93;;;17.10;53.10;;;;;;5051021;28;20411;-74
2023/05/08 10:11:18;;;;;;;15.20;14.30;;;17.20;52.10;;;;;;5048660;28;20425;-74
2023/05/08 10:13:44;;;;;;;16.50;15.50;;;17.20;52.60;;;;;;5050811;28;20195;-74
2023/05/08 10:16:14;;;;;;;17.13;16.10;;;17.30;53.60;;;;;;5052860;28;20425;-74
2023/05/08 10:18:45;;;;;;;15.63;14.73;;;17.30;53.40;;;;;;5055820;28;20415;-74
2023/05/08 10:21:13;;;;;;;15.67;14.77;;;17.40;52.60;;;;;;5059509;28;20488;-72
2023/05/08 10:23:40;;;;;;;16.07;15.07;;;17.30;52.30;;;;;;5056052;28;20565;-73
2023/05/08 10:26:13;;;;;;;15.93;14.83;;;17.30;51.70;;;;;;5053592;28;20820;-75
2023/05/08 10:28:48;;;;;;;16.60;15.70;;;17.30;51.80;;;;;;5048354;28;20479;-74
2023/05/08 10:31:16;;;;;;;17.67;16.47;;;17.30;52.00;;;;;;5050356;28;20468;-73
2023/05/08 10:33:44;;;;;;;17.00;15.90;;;17.30;52.90;;;;;;5053280;28;20952;-74
2023/05/08 10:36:12;;;;;;;17.10;15.90;;;17.30;53.20;;;;;;5058740;28;20415;-72
2023/05/08 10:38:40;;;;;;;17.53;16.43;;;17.30;53.10;;;;;;5047229;28;20422;-74
2023/05/08 10:41:06;;;;;;;15.97;14.90;;;17.40;54.20;;;;;;5065879;28;20501;-75
2023/05/08 10:43:32;;;;;;;15.90;14.93;;;17.50;53.40;;;;;;5068299;28;20449;-74
2023/05/08 10:46:08;;;;;;;17.13;16.13;;;17.50;52.40;;;;;;5068463;28;20433;-73
2023/05/08 10:49:18;;;;;;;16.83;15.83;;;17.50;51.70;;;;;;5063782;28;20406;-72
2023/05/08 10:52:00;;;;;;;16.70;15.80;;;17.60;51.30;;;;;;4966216;29;20434;-74
2023/05/08 10:54:35;;;;;;;15.47;14.53;;;17.60;51.50;;;;;;4953253;29;20858;-74
2023/05/08 10:57:11;;;;;;;16.17;15.17;;;17.50;51.30;;;;;;5019875;28;20418;-73
2023/05/08 10:59:37;;;;;;;16.70;15.70;;;17.50;51.80;;;;;;5052948;28;20417;-75
2023/05/08 11:02:05;;;;;;;18.17;17.07;;;17.40;51.50;;;;;;5051006;28;20805;-72
2023/05/08 11:04:30;;;;;;;17.80;16.57;;;17.40;52.20;;;;;;5065743;28;20496;-72
2023/05/08 11:06:57;;;;;;;19.20;18.10;;;17.50;52.80;;;;;;5070394;28;20442;-71
2023/05/08 11:09:44;;;;;;;18.97;17.87;;;17.40;52.60;;;;;;5070287;28;20167;-73
2023/05/08 11:12:17;;;;;;;15.80;14.87;;;17.40;54.00;;;;;;5068178;28;20506;-73
2023/05/08 11:14:52;;;;;;;17.40;16.30;;;17.50;54.30;;;;;;5070662;28;20475;-74
2023/05/08 11:17:23;;;;;;;17.47;16.47;;;17.60;53.40;;;;;;5070701;28;20404;-73
2023/05/08 11:19:58;;;;;;;17.00;16.00;;;17.60;53.00;;;;;;5070875;28;20498;-73
2023/05/08 11:22:31;;;;;;;16.30;15.50;;;17.70;51.80;;;;;;5074342;28;20946;-74
2023/05/08 11:24:58;;;;;;;16.20;15.23;;;17.60;49.90;;;;;;5058413;28;20500;-73
2023/05/08 11:27:53;;;;;;;14.63;13.90;;;17.60;51.20;;;;;;5074193;28;20417;-74
2023/05/08 11:30:24;;;;;;;13.13;12.43;;;17.60;48.60;;;;;;5045141;28;20425;-73
2023/05/08 11:33:10;;;;;;;15.00;14.17;;;17.60;48.30;;;;;;5072965;28;20460;-75
2023/05/08 11:35:45;;;;;;;13.13;12.53;;;17.70;49.00;;;;;;5074232;28;20414;-74
2023/05/08 11:38:13;;;;;;;15.00;13.80;;;17.90;49.30;;;;;;5074613;28;20452;-73
2023/05/08 11:40:45;;;;;;;13.80;13.10;;;18.00;48.70;;;;;;5075886;28;20449;-73
2023/05/08 11:43:25;;;;;;;15.97;14.97;;;18.10;47.10;;;;;;5054921;28;20804;-73
2023/05/08 11:45:51;;;;;;;15.60;14.70;;;18.40;47.10;;;;;;5076172;28;20410;-74
2023/05/08 11:48:18;;;;;;;15.77;14.20;;;18.40;46.00;;;;;;5076056;28;20437;-72
2023/05/08 11:50:43;;;;;;;16.23;15.23;;;18.50;45.40;;;;;;5075410;28;20416;-72
2023/05/08 11:53:09;;;;;;;16.17;15.27;;;18.50;45.10;;;;;;5074557;28;21026;-73
2023/05/08 11:55:35;;;;;;;15.67;14.87;;;18.50;43.70;;;;;;5057799;28;20266;-73
2023/05/08 11:58:01;;;;;;;15.50;14.60;;;18.50;42.90;;;;;;5075307;28;20183;-72
2023/05/08 12:00:26;;;;;;;17.00;15.73;;;18.50;43.10;;;;;;5074295;28;20572;-71
2023/05/08 12:02:52;;;;;;;15.37;14.50;;;18.50;43.20;;;;;;5074840;28;20261;-71
2023/05/08 12:05:26;;;;;;;17.83;16.77;;;18.50;43.50;;;;;;5074551;28;20199;-70
2023/05/08 12:07:51;;;;;;;17.40;16.47;;;18.50;43.10;;;;;;5074323;28;20406;-72
2023/05/08 12:10:17;;;;;;;17.83;16.83;;;18.50;42.50;;;;;;5075148;28;20410;-71
2023/05/08 12:12:43;;;;;;;19.47;18.13;;;18.60;42.50;;;;;;5074933;28;20211;-72
2023/05/08 12:15:13;;;;;;;18.07;17.07;;;18.60;43.00;;;;;;5072717;28;20180;-73
2023/05/08 12:17:39;;;;;;;17.90;16.90;;;18.70;42.50;;;;;;5075436;28;20413;-72
2023/05/08 12:20:13;;;;;;;16.10;15.20;;;18.70;42.00;;;;;;5074124;28;20457;-72
2023/05/08 12:22:40;;;;;;;20.13;18.40;;;18.70;41.40;;;;;;5075005;28;20793;-72
2023/05/08 12:25:11;;;;;;;17.00;16.10;;;18.70;41.20;;;;;;5071939;28;20842;-72
2023/05/08 12:27:37;;;;;;;18.70;17.60;;;18.90;41.60;;;;;;5073618;28;20410;-72
2023/05/08 12:30:11;;;;;;;17.00;16.10;;;18.90;39.50;;;;;;5072193;28;20425;-73
2023/05/08 12:32:38;;;;;;;18.47;17.20;;;18.90;39.80;;;;;;5069278;28;20210;-72
2023/05/08 12:35:06;;;;;;;17.13;16.23;;;18.90;39.10;;;;;;5073293;28;20496;-72
2023/05/08 12:37:31;;;;;;;16.63;15.73;;;18.90;39.10;;;;;;5075034;28;20463;-71